Portada
METAR-TAF:

METAR-TAF

Aeroports :

Kochi, Índia

latitud: 10-09-07N, longitud: 76-24-07E, altitud: 9 m

Observació

L'informe es va fer fa 19 minuts, a les 15:00 UTC
Vent calma
Temperatura 28°C
Humitat 74%
Pressió 1013 hPa
Visibilitat: 4000 m
calitja

METAR: VOCI 181500Z 00000KT 4000 HZ NSC 28/23 Q1013 NOSIG

Hora: 20:49 (15:19 UTC)

Pronòstic

L'informe es va fer fa 1 hora i 19 minuts, a les 14:00 UTC
Pronòstic vàlid del 18 a les 15 UTC al 18 a les 24 UTC
Vent 5 kt del Oest
Visibilitat: 4000 m
Escasses núvols a una alçada de 1500 ft
calitja
Evolucionant progressivament
l' 18 a les 17 UTC al 18 a les 18 UTC
Vent kt del Nord
Visibilitat: 3000 m
boirina

TAF: VOCI 181400Z 1815/1824 26005KT 4000 HZ FEW015 BECMG 1817/1818 00000KT 3000 BR NSC

Observacions i pronòstics meteorològics de més de 4000 aeroports (METAR i TAF).

Les estacions disponibles són els punts grocs i vermells al mapa.

Posi el ratolí al punt desitjat per veure el nom de l'estació.

Feu clic per veure les observacions i els pronòstics meteorològics.

Per canviar el mapa: feu clic els botons verds amb una creu de color negre per apropar; al botó verd amb un guió per allunyar la imatge; o en les fletxes verdes per a mapes adjacents.


METAR-TAF: